Overview Statistics Trail Chart Weather Telemetry Raw packets
 

This is the latest recevied weather packets stored in our database for station/object IU3OVK-13. If no packets are shown the sender has not sent any weather packets the latest 10 day(s).

<< 23 24 25 26 27 28 29 >>
Time Temp. Humidity Pressure Rain* Wind** Luminosity Snow
1788157716 31.11° C 99% 1008.6 hPa - - - -
1788157096 28.89° C 99% 1008.5 hPa - - - -
1788156475 26.67° C 99% 1008.8 hPa - - - -
1788155855 26.67° C 99% 1008.7 hPa - - - -
1788155231 17.22° C 99% 1007.9 hPa - - - -
1788153991 16.11° C 99% 1008 hPa - - - -
1788153371 16.67° C 99% 1007.8 hPa - - - -
1788152750 16.11° C 99% 1007.9 hPa - - - -
1788152130 16.67° C 99% 1007.7 hPa - - - -
1788150890 17.22° C 99% 1007.4 hPa - - - -
1788150270 16.67° C 99% 1007.6 hPa - - - -
1788149649 17.22° C 99% 1007.6 hPa - - - -
1788149029 16.67° C 99% 1007.7 hPa - - - -
1788148409 17.22° C 99% 1007.7 hPa - - - -
1788147789 16.67° C 99% 1007.9 hPa - - - -
1788147169 17.22° C 99% 1007.9 hPa - - - -
1788146549 17.22° C 99% 1007.8 hPa - - - -
1788145928 17.22° C 99% 1007.8 hPa - - - -
1788145308 17.22° C 99% 1007.7 hPa - - - -
1788144688 17.78° C 99% 1007.7 hPa - - - -
1788144068 17.78° C 99% 1007.6 hPa - - - -
1788143448 17.22° C 99% 1007.8 hPa - - - -
1788142207 17.78° C 99% 1007.8 hPa - - - -
1788141587 17.78° C 99% 1007.7 hPa - - - -
1788140967 18.33° C 99% 1007.7 hPa - - - -

* Rain since midnight (hover to see other rain measurements)
** Current wind speed in m/s (hover to see current wind gust speed)